• Join FlightAware (Why Join?)
  • Login
  • US Flag 
08:21AM EST


 

Airport Tracker/Info


-or-


 

Live Flight TrackerFlight Track Log ✈ DAL3682 ✈ 03-Oct-2013 ✈ KDTW - KCAE

Flight Track Log - Related Links

Times and Time Zones

All times are in EDT time to prevent confusion due to time zone crossing. See the DAL3682 flight status page for this flight to view local times or setup timezone preferences in your user account.

Time Position Orientation Groundspeed Altitude Reporting Facility
EDT Latitude Longitude Course Direction KTS MPH feet Rate Location/Type
04:03PM 42.1947 -83.3514 188° South 157 181 1,200  Level Cleveland Center
04:04PM 42.1353 -83.3628 188° South 197 227 3,600 1,620 Climbing Cleveland Center
04:05PM 42.0939 -83.3706 188° South 197 227 4,500 1,020 Climbing Cleveland Center
04:05PM 42.0692 -83.3758 189° South 257 296 4,800 1,440 Climbing Cleveland Center
04:06PM 42.0286 -83.3822 187° South 248 285 6,000 2,040 Climbing Cleveland Center
04:06PM 41.9969 -83.3603 153° Southeast 295 339 6,900 1,980 Climbing Cleveland Center
04:07PM 41.9842 -83.3053 107° East 293 337 8,100 1,800 Climbing Cleveland Center
04:08PM 41.9972 -83.1803 82° East 315 362 10,000 900 Climbing Cleveland Center
04:09PM 42.0128 -83.0536 81° East 345 397 10,000 360 Level Cleveland Center
04:10PM 42.0367 -82.8794 79° East 396 456 10,800 1,020 Climbing Cleveland Center
04:11PM 42.0561 -82.7294 80° East 408 470 12,200 1,200 Climbing Cleveland Center
04:12PM 42.0767 -82.5783 80° East 412 474 13,400 1,140 Climbing Cleveland Center
04:13PM 42.0806 -82.4253 88° East 412 474 14,600 1,200 Climbing Cleveland Center
04:14PM 42.0567 -82.2711 102° East 419 482 15,900 1,200 Climbing Cleveland Center
04:15PM 42.0322 -82.1139 102° East 419 482 17,100 1,200 Climbing Cleveland Center
04:16PM 41.9414 -81.9878 134° Southeast 403 464 18,400 1,200 Climbing Cleveland Center
04:17PM 41.8489 -81.8994 145° Southeast 403 464 19,600 1,200 Climbing Cleveland Center
04:18PM 41.7561 -81.8139 145° Southeast 401 461 20,900 1,020 Climbing Cleveland Center
04:19PM 41.6558 -81.7481 154° Southeast 395 455 21,800 900 Climbing Cleveland Center
04:20PM 41.5547 -81.6808 154° Southeast 398 458 22,800 1,020 Climbing Cleveland Center
04:21PM 41.4542 -81.6144 154° Southeast 396 456 24,000 1,020 Climbing Cleveland Center
04:22PM 41.3550 -81.5450 152° Southeast 390 449 25,000 480 Climbing Cleveland Center
04:23PM 41.2556 -81.4783 153° Southeast 401 461 25,000  Level Cleveland Center
04:24PM 41.1508 -81.4103 154° Southeast 417 480 25,000  Level Cleveland Center
04:25PM 41.0367 -81.3386 155° Southeast 426 490 25,000  Level Cleveland Center
04:26PM 40.9058 -81.2569 155° Southeast 439 505 25,000  Level Cleveland Center
04:27PM 40.7919 -81.1894 156° South 443 510 25,000  Level Cleveland Center
04:28PM 40.6778 -81.1206 155° Southeast 446 513 25,000  Level Cleveland Center
04:29PM 40.5719 -81.0583 156° South 452 520 25,000  Level Cleveland Center
04:30PM 40.4342 -80.9753 155° Southeast 457 526 25,000  Level Cleveland Center
04:32PM 40.3194 -80.9069 156° South 457 526 25,000  Level Cleveland Center
04:33PM 40.2053 -80.8392 156° South 456 525 25,000  Level Cleveland Center
04:34PM 40.0914 -80.7722 156° South 454 522 25,000  Level Cleveland Center
04:35PM 39.9767 -80.7064 156° South 453 521 25,000  Level Cleveland Center
04:36PM 39.8389 -80.6264 156° South 456 525 25,000  Level Cleveland Center
04:37PM 39.7247 -80.5589 156° South 455 524 25,000  Level Cleveland Center
04:38PM 39.6097 -80.4933 156° South 455 524 25,000  Level Cleveland Center
04:39PM 39.4947 -80.4286 157° South 451 519 25,000  Level Cleveland Center
04:40PM 39.3806 -80.3628 156° South 451 519 25,000  Level Cleveland Center
04:41PM 39.2403 -80.2833 156° South 459 528 25,000  Level Cleveland Center
04:42PM 39.1186 -80.2619 172° South 446 513 25,000  Level Cleveland Center
04:43PM 38.9967 -80.2900 190° South 446 513 25,000  Level Cleveland Center
04:44PM 38.8753 -80.3169 190° South 443 510 25,000  Level Cleveland Center
04:45PM 38.7517 -80.3192 181° South 447 514 25,000  Level Cleveland Center
04:46PM 38.6136 -80.3319 184° South 451 519 25,000  Level Washington Center
04:47PM 38.4914 -80.3614 191° South 445 512 25,000  Level Washington Center
04:48PM 38.3608 -80.3953 192° South 445 512 25,000  Level Washington Center
04:49PM 38.2406 -80.4272 192° South 445 512 25,000  Level Washington Center
04:50PM 38.1183 -80.4589 192° South 450 518 25,000  Level Washington Center
04:51PM 38.0089 -80.4833 190° South 450 518 25,000  Level Washington Center
04:52PM 37.8886 -80.5178 193° South 450 518 25,000  Level Washington Center
04:53PM 37.7664 -80.5464 190° South 450 518 25,000  Level Washington Center
04:55PM 37.5653 -80.5964 191° South 472 543 25,000  Level Atlanta Center
04:56PM 37.4453 -80.6253 191° South 459 528 25,000  Level Atlanta Center
04:57PM 37.3231 -80.6489 189° South 448 516 25,000  Level Atlanta Center
04:58PM 37.2131 -80.6642 186° South 442 509 25,000  Level Atlanta Center
04:59PM 37.0925 -80.6822 187° South 442 509 25,000  Level Atlanta Center
05:00PM 36.9722 -80.7003 187° South 442 509 25,000  Level Atlanta Center
05:01PM 36.8497 -80.7183 187° South 442 509 25,000 -120 Level Atlanta Center
05:02PM 36.7289 -80.7314 185° South 442 509 24,800 -540 Descending Atlanta Center
05:03PM 36.6044 -80.7494 187° South 448 516 24,000 -780 Descending Atlanta Center
05:04PM 36.4778 -80.7700 187° South 454 522 23,300 -540 Descending Atlanta Center
05:05PM 36.3489 -80.7881 186° South 448 516 23,000 -180 Descending Atlanta Center
05:06PM 36.2283 -80.8058 187° South 442 509 23,000  Level Atlanta Center
05:07PM 36.1100 -80.8208 186° South 442 509 23,000  Level Atlanta Center
05:08PM 35.9894 -80.8411 188° South 442 509 23,000  Level Atlanta Center
05:09PM 35.8669 -80.8561 186° South 442 509 23,000  Level Atlanta Center
05:10PM 35.7464 -80.8736 187° South 442 509 23,000  Level Atlanta Center
05:11PM 35.6381 -80.8881 186° South 442 509 23,000  Level Atlanta Center
05:12PM 35.5175 -80.9056 187° South 442 509 23,000  Level Atlanta Center
05:13PM 35.3972 -80.9253 188° South 442 509 23,000  Level Atlanta Center
05:14PM 35.2786 -80.9400 186° South 442 509 23,000 -60 Level Atlanta Center
05:15PM 35.1475 -80.9575 186° South 442 509 22,900 -840 Descending Atlanta Center
05:16PM 35.0267 -80.9672 184° South 436 502 21,400 -1,500 Descending Atlanta Center
05:17PM 34.9061 -80.9792 185° South 436 502 19,900 -1,560 Descending Atlanta Center
05:18PM 34.7894 -80.9886 184° South 435 501 18,300 -1,500 Descending Atlanta Center
05:19PM 34.6747 -80.9953 183° South 430 495 17,000 -1,500 Descending Atlanta Center
05:20PM 34.5667 -81.0042 184° South 407 468 15,300 -1,800 Descending Atlanta Center
05:21PM 34.4586 -81.0283 190° South 397 457 13,400 -2,100 Descending Atlanta Center
05:22PM 34.3681 -81.0794 205° Southwest 371 427 11,100 -1,620 Descending Atlanta Center
05:23PM 34.2856 -81.1200 202° Southwest 347 399 10,200 -1,380 Descending Atlanta Center
05:24PM 34.2153 -81.1500 199° South 304 350 8,400 -1,980 Descending Atlanta Center
05:25PM 34.1469 -81.1750 197° South 276 318 6,300 -2,100 Descending Atlanta Center
05:26PM 34.0850 -81.2044 201° Southwest 258 297 4,200 -1,680 Descending Atlanta Center
05:27PM 34.0228 -81.2242 195° South 246 283 3,000 -1,140 Descending Atlanta Center
05:28PM 33.9692 -81.2433 197° South 219 252 2,000 -1,020 Descending Atlanta Center
05:31PM 33.9333 -81.1167 135° Southeast  Level FlightAware Approximate
05:38PM 33.9388 -81.1195 135° Southeast  Level Estimated